Time;durP1;ratioP1;P1;durP2;ratioP2;P2;SDS_P1;SDS_P2;PMS_P1;PMS_P2;Temp;Humidity;BMP_temperature;BMP_pressure;BME280_temperature;BME280_humidity;BME280_pressure;Samples;Min_cycle;Max_cycle;Signal;HPM_P1;HPM_P2
2022/05/15 00:01:23;;;;;;;13.73;12.82;;;;;;;;;;5068728;28;20044;-68
2022/05/15 00:03:48;;;;;;;13.98;13.15;;;;;;;;;;5068690;28;20037;-68
2022/05/15 00:06:14;;;;;;;12.40;11.70;;;;;;;;;;5069140;28;20051;-68
2022/05/15 00:08:39;;;;;;;15.60;14.70;;;;;;;;;;5068730;28;20024;-68
2022/05/15 00:11:07;;;;;;;15.52;14.65;;;;;;;;;;5068295;28;20020;-68
2022/05/15 00:13:33;;;;;;;15.68;14.77;;;;;;;;;;5068301;28;20111;-68
2022/05/15 00:15:58;;;;;;;16.45;15.55;;;;;;;;;;5068894;28;20556;-68
2022/05/15 00:18:24;;;;;;;16.15;15.23;;;;;;;;;;5067962;28;20032;-68
2022/05/15 00:20:51;;;;;;;15.38;14.48;;;;;;;;;;5068361;28;20602;-68
2022/05/15 00:23:18;;;;;;;14.32;13.45;;;;;;;;;;5068334;28;20028;-68
2022/05/15 00:25:44;;;;;;;15.23;14.23;;;;;;;;;;5068294;28;20051;-68
2022/05/15 00:28:10;;;;;;;13.80;13.00;;;;;;;;;;5067555;28;20442;-68
2022/05/15 00:30:37;;;;;;;12.85;12.13;;;;;;;;;;5068888;28;20040;-68
2022/05/15 00:33:04;;;;;;;14.25;13.40;;;;;;;;;;5068833;28;20042;-68
2022/05/15 00:35:30;;;;;;;11.93;11.23;;;;;;;;;;5068091;28;20115;-68
2022/05/15 00:37:55;;;;;;;12.05;11.35;;;;;;;;;;5067555;28;20048;-68
2022/05/15 00:40:22;;;;;;;12.07;11.35;;;;;;;;;;5068721;28;20028;-67
2022/05/15 00:42:48;;;;;;;14.63;13.48;;;;;;;;;;5067958;28;20379;-67
2022/05/15 00:45:15;;;;;;;12.02;11.18;;;;;;;;;;5068135;28;20029;-66
2022/05/15 00:47:41;;;;;;;13.45;12.63;;;;;;;;;;5067163;28;20740;-67
2022/05/15 00:50:11;;;;;;;12.77;11.88;;;;;;;;;;5064019;28;20049;-67
2022/05/15 00:52:39;;;;;;;15.32;14.43;;;;;;;;;;5064131;28;20039;-66
2022/05/15 00:55:13;;;;;;;15.63;14.70;;;;;;;;;;5065039;28;20033;-67
2022/05/15 00:57:44;;;;;;;16.45;15.43;;;;;;;;;;5065765;28;20028;-66
2022/05/15 01:00:14;;;;;;;21.27;17.25;;;;;;;;;;5064719;28;20071;-66
2022/05/15 01:02:46;;;;;;;13.63;12.82;;;;;;;;;;5064121;28;20041;-68
2022/05/15 01:05:13;;;;;;;14.35;13.50;;;;;;;;;;5064968;28;20075;-68
2022/05/15 01:07:38;;;;;;;15.38;14.48;;;;;;;;;;5065100;28;20036;-66
2022/05/15 01:10:05;;;;;;;13.05;12.25;;;;;;;;;;5065497;28;20040;-67
2022/05/15 01:12:33;;;;;;;13.48;12.68;;;;;;;;;;5064040;28;20036;-67
2022/05/15 01:14:58;;;;;;;13.95;13.10;;;;;;;;;;5063934;28;20032;-67
2022/05/15 01:17:24;;;;;;;15.30;14.30;;;;;;;;;;5064494;28;20467;-68
2022/05/15 01:19:49;;;;;;;11.95;11.25;;;;;;;;;;5064527;28;20044;-67
2022/05/15 01:22:15;;;;;;;12.82;12.02;;;;;;;;;;5062976;28;20111;-67
2022/05/15 01:24:42;;;;;;;12.68;11.88;;;;;;;;;;5064135;28;20633;-67
2022/05/15 01:27:10;;;;;;;11.82;11.13;;;;;;;;;;5063183;28;20105;-67
2022/05/15 01:29:45;;;;;;;10.07;9.45;;;;;;;;;;5063461;28;20117;-67
2022/05/15 01:32:12;;;;;;;12.15;11.45;;;;;;;;;;5066810;28;20454;-67
2022/05/15 01:34:39;;;;;;;12.95;12.15;;;;;;;;;;5066964;28;20373;-67
2022/05/15 01:37:05;;;;;;;11.95;11.13;;;;;;;;;;5066665;28;20064;-66
2022/05/15 01:39:30;;;;;;;13.98;12.93;;;;;;;;;;5067391;28;20369;-67
2022/05/15 01:41:57;;;;;;;12.73;12.00;;;;;;;;;;5065763;28;20033;-66
2022/05/15 01:44:22;;;;;;;12.23;11.43;;;;;;;;;;5066430;28;20060;-67
2022/05/15 01:46:48;;;;;;;14.07;13.27;;;;;;;;;;5066833;28;20067;-66
2022/05/15 01:49:15;;;;;;;15.68;14.75;;;;;;;;;;5067554;28;20032;-67
2022/05/15 01:51:42;;;;;;;19.63;18.50;;;;;;;;;;5067404;28;20032;-67
2022/05/15 01:54:08;;;;;;;22.83;21.58;;;;;;;;;;5067481;28;20020;-67
2022/05/15 01:56:36;;;;;;;24.63;23.13;;;;;;;;;;5066633;28;20033;-67
2022/05/15 01:59:02;;;;;;;27.92;26.20;;;;;;;;;;5065526;28;20036;-67
2022/05/15 02:01:27;;;;;;;29.23;27.65;;;;;;;;;;5066995;28;20017;-67
2022/05/15 02:03:53;;;;;;;26.13;24.52;;;;;;;;;;5066244;28;20042;-66
2022/05/15 02:06:18;;;;;;;29.33;27.77;;;;;;;;;;5065728;28;20125;-67
2022/05/15 02:08:44;;;;;;;30.08;28.48;;;;;;;;;;5065978;28;20053;-67
2022/05/15 02:11:09;;;;;;;27.77;26.25;;;;;;;;;;5066618;28;20113;-67
2022/05/15 02:13:35;;;;;;;26.42;25.02;;;;;;;;;;5066284;28;20482;-67
2022/05/15 02:16:02;;;;;;;32.40;30.60;;;;;;;;;;5066301;28;20145;-66
2022/05/15 02:18:28;;;;;;;24.55;23.17;;;;;;;;;;5065636;28;20040;-67
2022/05/15 02:20:54;;;;;;;22.45;21.25;;;;;;;;;;5067111;28;20358;-66
2022/05/15 02:23:19;;;;;;;18.02;16.90;;;;;;;;;;5066898;28;20089;-66
2022/05/15 02:25:45;;;;;;;19.20;17.67;;;;;;;;;;5066114;28;20097;-67
2022/05/15 02:28:10;;;;;;;16.20;15.30;;;;;;;;;;5064066;28;20020;-66
2022/05/15 02:30:36;;;;;;;15.50;14.60;;;;;;;;;;5066559;28;20056;-66
2022/05/15 02:33:01;;;;;;;15.75;14.82;;;;;;;;;;5065531;28;20461;-67
2022/05/15 02:35:27;;;;;;;18.58;17.52;;;;;;;;;;5066206;28;20349;-66
2022/05/15 02:37:52;;;;;;;16.77;15.77;;;;;;;;;;5067000;28;20548;-67
2022/05/15 02:40:20;;;;;;;15.88;14.95;;;;;;;;;;5067150;28;20051;-65
2022/05/15 02:42:46;;;;;;;14.73;13.88;;;;;;;;;;5065297;28;20055;-65
2022/05/15 02:45:12;;;;;;;12.40;11.50;;;;;;;;;;5065568;28;20033;-65
2022/05/15 02:47:37;;;;;;;14.27;13.43;;;;;;;;;;5066129;28;20120;-65
2022/05/15 02:52:49;;;;;;;14.32;13.48;;;;;;;;;;5067108;28;20021;-66
2022/05/15 02:55:14;;;;;;;11.43;10.73;;;;;;;;;;5066828;28;20535;-65
2022/05/15 02:57:41;;;;;;;12.18;11.48;;;;;;;;;;5066119;28;20089;-66
2022/05/15 03:00:09;;;;;;;12.05;11.25;;;;;;;;;;5065515;28;20082;-65
2022/05/15 03:02:38;;;;;;;11.82;11.13;;;;;;;;;;5065867;28;20024;-65
2022/05/15 03:05:05;;;;;;;14.13;13.23;;;;;;;;;;5065311;28;20036;-65
2022/05/15 03:07:31;;;;;;;11.07;10.38;;;;;;;;;;5066182;28;20055;-66
2022/05/15 03:09:56;;;;;;;11.02;10.32;;;;;;;;;;5065921;28;20049;-66
2022/05/15 03:12:22;;;;;;;11.68;10.98;;;;;;;;;;5065749;28;20080;-65
2022/05/15 03:14:47;;;;;;;12.52;11.45;;;;;;;;;;5066085;28;20020;-66
2022/05/15 03:17:13;;;;;;;8.40;7.80;;;;;;;;;;5066154;28;20025;-65
2022/05/15 03:19:38;;;;;;;9.07;8.48;;;;;;;;;;5065546;28;20048;-65
2022/05/15 03:22:03;;;;;;;11.73;9.60;;;;;;;;;;5066053;28;20490;-65
2022/05/15 03:24:29;;;;;;;9.10;8.50;;;;;;;;;;5066140;28;20370;-66
2022/05/15 03:26:54;;;;;;;10.25;9.60;;;;;;;;;;5065034;28;20051;-65
2022/05/15 03:29:20;;;;;;;8.35;7.75;;;;;;;;;;5064593;28;20035;-65
2022/05/15 03:31:46;;;;;;;8.48;7.88;;;;;;;;;;5065952;28;20113;-65
2022/05/15 03:34:13;;;;;;;10.27;9.48;;;;;;;;;;5065208;28;20539;-65
2022/05/15 03:36:40;;;;;;;8.38;7.78;;;;;;;;;;5065196;28;20035;-65
2022/05/15 03:39:07;;;;;;;8.40;7.80;;;;;;;;;;5080944;28;20715;-65
2022/05/15 03:41:33;;;;;;;7.18;6.68;;;;;;;;;;5065760;28;20028;-65
2022/05/15 03:43:59;;;;;;;8.50;7.90;;;;;;;;;;5064287;28;20036;-65
2022/05/15 03:46:24;;;;;;;9.32;8.65;;;;;;;;;;5065716;28;20020;-66
2022/05/15 03:48:50;;;;;;;9.55;8.88;;;;;;;;;;5064944;28;20035;-66
2022/05/15 03:51:16;;;;;;;8.55;7.95;;;;;;;;;;5066035;28;20742;-65
2022/05/15 03:53:42;;;;;;;8.30;7.70;;;;;;;;;;5064709;28;20024;-65
2022/05/15 03:56:07;;;;;;;8.85;8.25;;;;;;;;;;5065999;28;20029;-66
2022/05/15 03:58:35;;;;;;;9.25;8.65;;;;;;;;;;5064687;28;20350;-64
2022/05/15 04:01:01;;;;;;;8.82;8.23;;;;;;;;;;5065425;28;20055;-64
2022/05/15 04:03:26;;;;;;;7.70;7.20;;;;;;;;;;5064494;28;20379;-66
2022/05/15 04:05:51;;;;;;;10.90;7.40;;;;;;;;;;5063163;28;20067;-65
2022/05/15 04:08:17;;;;;;;8.57;7.97;;;;;;;;;;5064933;28;20411;-65
2022/05/15 04:10:43;;;;;;;8.50;7.90;;;;;;;;;;5064902;28;20036;-65
2022/05/15 04:13:08;;;;;;;8.73;8.13;;;;;;;;;;5064815;28;20055;-66
2022/05/15 04:15:34;;;;;;;8.82;8.18;;;;;;;;;;5065742;28;20040;-66
2022/05/15 04:18:00;;;;;;;9.13;8.52;;;;;;;;;;5065466;28;20051;-65
2022/05/15 04:20:28;;;;;;;9.00;8.40;;;;;;;;;;5064538;28;20544;-64
2022/05/15 04:22:54;;;;;;;8.05;7.45;;;;;;;;;;5064464;28;20050;-64
2022/05/15 04:25:20;;;;;;;8.93;8.32;;;;;;;;;;5064304;28;20029;-64
2022/05/15 04:27:45;;;;;;;7.97;7.47;;;;;;;;;;5063187;28;20071;-65
2022/05/15 04:30:19;;;;;;;8.45;7.93;;;;;;;;;;5069212;28;20070;-66
2022/05/15 04:32:45;;;;;;;8.10;7.50;;;;;;;;;;5068015;28;20214;-65
2022/05/15 04:35:11;;;;;;;9.70;8.93;;;;;;;;;;5068309;28;20161;-65
2022/05/15 04:37:39;;;;;;;8.65;8.05;;;;;;;;;;5069121;28;20038;-65
2022/05/15 04:40:05;;;;;;;9.48;8.77;;;;;;;;;;5068374;28;20054;-65
2022/05/15 04:42:31;;;;;;;8.75;8.15;;;;;;;;;;5066962;28;20055;-64
2022/05/15 04:44:56;;;;;;;8.95;8.35;;;;;;;;;;5068616;28;20541;-66
2022/05/15 04:47:21;;;;;;;7.90;7.40;;;;;;;;;;5068685;28;20051;-65
2022/05/15 04:49:47;;;;;;;8.40;7.80;;;;;;;;;;5067760;28;20028;-64
2022/05/15 04:52:12;;;;;;;7.75;7.25;;;;;;;;;;5068720;28;20032;-64
2022/05/15 04:54:38;;;;;;;9.65;8.98;;;;;;;;;;5068361;28;20485;-65
2022/05/15 04:57:04;;;;;;;8.77;7.95;;;;;;;;;;5068144;28;20036;-65
2022/05/15 04:59:29;;;;;;;9.07;8.48;;;;;;;;;;5068194;28;20497;-65
2022/05/15 05:01:54;;;;;;;8.30;7.72;;;;;;;;;;5068314;28;20039;-65
2022/05/15 05:04:20;;;;;;;10.13;9.30;;;;;;;;;;5067657;28;20035;-65
2022/05/15 05:06:45;;;;;;;10.75;10.05;;;;;;;;;;5067869;28;20341;-65
2022/05/15 05:09:13;;;;;;;10.35;9.65;;;;;;;;;;5067071;28;20408;-64
2022/05/15 05:11:39;;;;;;;12.68;11.82;;;;;;;;;;5068274;28;20122;-65
2022/05/15 05:14:05;;;;;;;10.75;10.02;;;;;;;;;;5068164;28;20063;-65
2022/05/15 05:16:31;;;;;;;11.32;10.63;;;;;;;;;;5067930;28;20431;-65
2022/05/15 05:18:56;;;;;;;11.90;11.20;;;;;;;;;;5062774;28;20042;-65
2022/05/15 05:21:22;;;;;;;11.85;11.15;;;;;;;;;;5067709;28;20021;-65
2022/05/15 05:23:47;;;;;;;11.07;10.38;;;;;;;;;;5067591;28;20039;-65
2022/05/15 05:26:13;;;;;;;13.40;12.60;;;;;;;;;;5067614;28;20482;-65
2022/05/15 05:28:38;;;;;;;12.18;11.38;;;;;;;;;;5067661;28;20036;-64
2022/05/15 05:31:04;;;;;;;13.20;12.40;;;;;;;;;;5068017;28;20025;-64
2022/05/15 05:33:29;;;;;;;13.48;12.68;;;;;;;;;;5067575;28;20028;-64
2022/05/15 05:35:55;;;;;;;13.15;12.35;;;;;;;;;;5082956;28;20119;-65
2022/05/15 05:38:21;;;;;;;11.95;11.20;;;;;;;;;;5067455;28;20032;-64
2022/05/15 05:40:46;;;;;;;16.50;15.50;;;;;;;;;;5066225;28;20028;-64
2022/05/15 05:43:11;;;;;;;14.60;13.70;;;;;;;;;;5067090;28;20405;-64
2022/05/15 05:45:37;;;;;;;14.70;13.80;;;;;;;;;;5067221;28;20098;-65
2022/05/15 05:48:03;;;;;;;14.40;13.60;;;;;;;;;;5067181;28;20035;-65
2022/05/15 05:50:29;;;;;;;14.52;13.68;;;;;;;;;;5067155;28;20331;-65
2022/05/15 05:52:55;;;;;;;14.95;13.95;;;;;;;;;;5066819;28;20021;-65
2022/05/15 05:55:22;;;;;;;14.25;13.45;;;;;;;;;;5066589;28;20056;-65
2022/05/15 05:57:47;;;;;;;15.27;13.90;;;;;;;;;;5066305;28;20032;-65
2022/05/15 06:00:39;;;;;;;13.32;12.43;;;;;;;;;;5067005;28;20366;-65
2022/05/15 06:05:50;;;;;;;12.90;12.10;;;;;;;;;;5068127;28;20074;-66
2022/05/15 06:08:17;;;;;;;12.30;11.50;;;;;;;;;;5067684;28;20029;-65
2022/05/15 06:10:43;;;;;;;13.13;12.32;;;;;;;;;;5067398;28;20458;-65
2022/05/15 06:13:09;;;;;;;13.82;12.93;;;;;;;;;;5066326;28;20035;-65
2022/05/15 06:15:35;;;;;;;12.68;11.88;;;;;;;;;;5066193;28;20119;-64
2022/05/15 06:18:03;;;;;;;13.02;12.18;;;;;;;;;;5064784;28;20040;-65
2022/05/15 06:20:28;;;;;;;10.80;10.10;;;;;;;;;;5061903;28;20028;-65
2022/05/15 06:22:54;;;;;;;9.50;8.90;;;;;;;;;;5064058;28;20029;-65
2022/05/15 06:25:20;;;;;;;10.70;10.00;;;;;;;;;;5065531;28;20039;-65
2022/05/15 06:27:45;;;;;;;10.30;9.57;;;;;;;;;;5067020;28;20507;-65
2022/05/15 06:30:12;;;;;;;10.30;9.60;;;;;;;;;;5067032;28;20051;-65
2022/05/15 06:32:40;;;;;;;11.20;10.50;;;;;;;;;;5065307;28;20361;-65
2022/05/15 06:35:07;;;;;;;11.02;10.32;;;;;;;;;;5063406;28;20554;-65
2022/05/15 06:37:33;;;;;;;11.15;9.75;;;;;;;;;;5066005;28;20032;-65
2022/05/15 06:39:58;;;;;;;8.98;8.38;;;;;;;;;;5067479;28;20365;-65
2022/05/15 06:42:25;;;;;;;8.55;7.95;;;;;;;;;;5066405;28;20028;-65
2022/05/15 06:44:51;;;;;;;8.48;7.88;;;;;;;;;;5066561;28;20074;-66
2022/05/15 06:47:17;;;;;;;7.20;6.70;;;;;;;;;;5067058;28;20050;-66
2022/05/15 06:49:42;;;;;;;6.65;6.15;;;;;;;;;;5056805;28;20036;-66
2022/05/15 06:52:08;;;;;;;6.95;6.45;;;;;;;;;;5066541;28;20032;-66
2022/05/15 06:54:34;;;;;;;7.90;7.30;;;;;;;;;;5065951;28;20468;-65
2022/05/15 06:59:43;;;;;;;6.22;5.72;;;;;;;;;;5065498;28;20158;-66
2022/05/15 07:02:08;;;;;;;5.50;5.10;;;;;;;;;;5066031;28;20418;-66
2022/05/15 07:04:34;;;;;;;7.72;7.22;;;;;;;;;;5063264;28;20055;-66
2022/05/15 07:06:59;;;;;;;6.85;6.35;;;;;;;;;;5066497;28;20041;-66
2022/05/15 07:09:26;;;;;;;6.20;5.70;;;;;;;;;;5066583;28;20112;-65
2022/05/15 07:11:52;;;;;;;6.57;6.13;;;;;;;;;;5065834;28;20024;-65
2022/05/15 07:14:17;;;;;;;7.90;7.30;;;;;;;;;;5066577;28;20764;-65
2022/05/15 07:16:42;;;;;;;7.53;6.97;;;;;;;;;;5066329;28;20099;-65
2022/05/15 07:19:08;;;;;;;6.63;6.18;;;;;;;;;;5066245;28;20036;-66
2022/05/15 07:21:33;;;;;;;8.70;8.00;;;;;;;;;;5066803;28;20028;-65
2022/05/15 07:23:59;;;;;;;8.40;7.70;;;;;;;;;;5066177;28;20056;-66
2022/05/15 07:26:24;;;;;;;8.55;8.05;;;;;;;;;;5066254;28;20116;-66
2022/05/15 07:28:51;;;;;;;8.07;7.57;;;;;;;;;;5065324;28;20103;-66
2022/05/15 07:31:18;;;;;;;8.68;8.07;;;;;;;;;;5066422;28;20529;-66
2022/05/15 07:33:44;;;;;;;8.82;8.23;;;;;;;;;;5065697;28;20108;-65
2022/05/15 07:36:10;;;;;;;12.77;11.98;;;;;;;;;;5065916;28;20458;-65
2022/05/15 07:38:35;;;;;;;13.50;12.70;;;;;;;;;;5066419;28;20032;-65
2022/05/15 07:41:01;;;;;;;12.05;11.25;;;;;;;;;;5066041;28;20032;-66
2022/05/15 07:43:26;;;;;;;13.10;12.30;;;;;;;;;;5065219;28;20037;-66
2022/05/15 07:45:51;;;;;;;14.20;13.40;;;;;;;;;;5065814;28;20653;-65
2022/05/15 07:48:17;;;;;;;13.50;12.70;;;;;;;;;;5065024;28;20039;-66
2022/05/15 07:50:42;;;;;;;16.73;15.75;;;;;;;;;;5066105;28;20029;-66
2022/05/15 07:53:08;;;;;;;20.63;19.52;;;;;;;;;;5066239;28;20028;-65
2022/05/15 07:55:33;;;;;;;25.83;24.35;;;;;;;;;;5065699;28;20035;-66
2022/05/15 07:57:58;;;;;;;16.45;15.45;;;;;;;;;;5065180;28;20511;-66
2022/05/15 08:00:24;;;;;;;15.52;14.63;;;;;;;;;;5066313;28;20105;-64
2022/05/15 08:02:49;;;;;;;28.67;27.08;;;;;;;;;;5065901;28;20056;-65
2022/05/15 08:08:09;;;;;;;29.23;27.70;;;;;;;;;;5070554;28;20059;-64
2022/05/15 08:10:40;;;;;;;31.25;29.65;;;;;;;;;;5069049;28;20107;-65
2022/05/15 08:13:10;;;;;;;18.48;17.40;;;;;;;;;;5068944;28;20036;-65
2022/05/15 08:15:36;;;;;;;18.98;17.95;;;;;;;;;;5069302;28;20082;-65
2022/05/15 08:23:33;;;;;;;28.08;26.55;;;;;;;;;;5069683;28;20028;-65
2022/05/15 08:26:00;;;;;;;34.47;32.67;;;;;;;;;;5069299;28;20028;-65
2022/05/15 08:28:26;;;;;;;42.28;40.00;;;;;;;;;;5069348;28;20082;-65
2022/05/15 08:30:51;;;;;;;27.55;26.05;;;;;;;;;;5069125;28;20060;-65
2022/05/15 08:33:16;;;;;;;40.92;38.83;;;;;;;;;;5068962;28;20028;-65
2022/05/15 08:35:42;;;;;;;35.78;33.80;;;;;;;;;;5069474;28;20063;-67
2022/05/15 08:38:08;;;;;;;39.95;37.85;;;;;;;;;;5069633;28;20040;-65
2022/05/15 08:41:02;;;;;;;41.08;38.97;;;;;;;;;;5069480;28;20513;-65
2022/05/15 08:43:41;;;;;;;43.58;41.22;;;;;;;;;;5075450;28;20036;-66
2022/05/15 08:46:20;;;;;;;40.53;38.43;;;;;;;;;;5068975;28;20029;-65
2022/05/15 08:48:45;;;;;;;29.17;27.65;;;;;;;;;;5068449;28;20115;-66
2022/05/15 08:51:13;;;;;;;34.75;32.95;;;;;;;;;;5069274;28;20131;-66
2022/05/15 08:53:40;;;;;;;24.13;22.83;;;;;;;;;;5069362;28;20024;-65
2022/05/15 08:56:09;;;;;;;35.20;33.40;;;;;;;;;;5068211;28;20041;-65
2022/05/15 08:58:51;;;;;;;23.05;21.73;;;;;;;;;;5068316;28;20058;-65
2022/05/15 09:01:22;;;;;;;33.53;31.73;;;;;;;;;;5069251;28;20036;-65
2022/05/15 09:03:48;;;;;;;;;;;;;;;;;;5068906;28;20101;-66
2022/05/15 09:06:24;;;;;;;25.92;24.52;;;;;;;;;;5067798;28;20015;-65
2022/05/15 09:09:21;;;;;;;22.63;21.42;;;;;;;;;;5068196;28;20024;-65
2022/05/15 09:12:04;;;;;;;20.27;19.08;;;;;;;;;;5068477;28;20032;-65
2022/05/15 09:15:04;;;;;;;19.88;18.67;;;;;;;;;;5067841;28;20036;-66
2022/05/15 09:17:30;;;;;;;22.67;21.45;;;;;;;;;;5068267;28;20047;-66
2022/05/15 09:19:58;;;;;;;45.70;43.38;;;;;;;;;;5068078;28;20024;-66
2022/05/15 09:22:28;;;;;;;64.20;61.00;;;;;;;;;;5068479;28;20500;-65
2022/05/15 09:24:55;;;;;;;;;;;;;;;;;;5067905;28;20366;-66
2022/05/15 09:27:29;;;;;;;40.42;38.33;;;;;;;;;;5067992;28;19916;-66
2022/05/15 09:29:56;;;;;;;70.55;67.03;;;;;;;;;;5067626;28;20494;-65
2022/05/15 09:32:31;;;;;;;40.40;38.33;;;;;;;;;;5067819;28;20450;-67
2022/05/15 09:34:58;;;;;;;53.55;50.45;;;;;;;;;;5067418;28;20043;-66
2022/05/15 09:40:23;;;;;;;77.07;73.20;;;;;;;;;;5067679;28;20028;-66
2022/05/15 09:45:54;;;;;;;74.80;71.03;;;;;;;;;;5068109;28;20124;-65
2022/05/15 09:48:23;;;;;;;68.70;65.25;;;;;;;;;;5067241;28;20063;-66
2022/05/15 09:50:48;;;;;;;57.10;54.20;;;;;;;;;;5067588;28;20025;-66
2022/05/15 09:53:19;;;;;;;40.17;38.08;;;;;;;;;;5067581;28;20365;-66
2022/05/15 09:56:01;;;;;;;35.13;33.22;;;;;;;;;;5067719;28;20033;-67
2022/05/15 09:58:37;;;;;;;61.10;58.00;;;;;;;;;;5067052;28;20484;-66
2022/05/15 10:01:41;;;;;;;80.47;76.50;;;;;;;;;;5066637;28;20070;-66
2022/05/15 10:04:20;;;;;;;22.25;21.05;;;;;;;;;;5066817;28;20052;-66
2022/05/15 10:06:51;;;;;;;79.28;75.32;;;;;;;;;;5067109;28;20028;-66
2022/05/15 10:09:33;;;;;;;60.75;57.65;;;;;;;;;;5063229;28;20036;-67
2022/05/15 10:12:02;;;;;;;19.45;18.35;;;;;;;;;;5066052;28;20033;-67
2022/05/15 10:14:40;;;;;;;31.17;29.50;;;;;;;;;;5067432;28;20021;-67
2022/05/15 10:17:06;;;;;;;28.67;27.13;;;;;;;;;;5066450;28;20021;-66
2022/05/15 10:19:42;;;;;;;24.27;22.98;;;;;;;;;;5066320;28;20063;-66
2022/05/15 10:22:29;;;;;;;22.90;21.33;;;;;;;;;;5066159;28;20028;-66
2022/05/15 10:25:00;;;;;;;41.85;39.65;;;;;;;;;;5067446;28;20480;-66
2022/05/15 10:27:31;;;;;;;48.22;45.70;;;;;;;;;;5066639;28;20079;-66
2022/05/15 10:30:10;;;;;;;63.60;59.45;;;;;;;;;;5066155;28;20032;-67
2022/05/15 10:32:38;;;;;;;50.05;47.47;;;;;;;;;;5066951;28;20082;-66
2022/05/15 10:35:04;;;;;;;91.05;86.57;;;;;;;;;;5066177;28;20052;-67
2022/05/15 10:37:33;;;;;;;89.32;84.88;;;;;;;;;;5066427;28;20090;-66
2022/05/15 10:40:26;;;;;;;67.93;64.47;;;;;;;;;;5066420;28;20032;-66
2022/05/15 10:42:58;;;;;;;86.97;82.65;;;;;;;;;;5066010;28;20126;-66
2022/05/15 10:45:35;;;;;;;87.13;82.82;;;;;;;;;;5066752;28;20959;-66
2022/05/15 10:48:03;;;;;;;84.35;80.10;;;;;;;;;;5065924;28;20622;-66
2022/05/15 10:50:52;;;;;;;55.92;53.13;;;;;;;;;;5065794;28;20042;-66
2022/05/15 10:59:45;;;;;;;62.38;59.28;;;;;;;;;;5065965;28;19979;-65
2022/05/15 11:02:24;;;;;;;54.17;51.45;;;;;;;;;;5066056;28;20039;-66
2022/05/15 11:05:06;;;;;;;52.33;49.65;;;;;;;;;;5066172;28;20043;-66
2022/05/15 11:07:51;;;;;;;68.75;65.35;;;;;;;;;;5065897;28;20040;-66
2022/05/15 11:10:47;;;;;;;75.53;71.80;;;;;;;;;;5066741;28;20036;-66
2022/05/15 11:13:35;;;;;;;76.60;72.80;;;;;;;;;;5066225;28;20060;-66
2022/05/15 11:16:13;;;;;;;70.07;66.57;;;;;;;;;;5065916;28;20058;-66
2022/05/15 11:18:51;;;;;;;69.45;65.95;;;;;;;;;;5064963;28;20094;-67
2022/05/15 11:21:40;;;;;;;62.70;59.58;;;;;;;;;;5066251;28;20070;-66
2022/05/15 11:24:18;;;;;;;61.70;58.55;;;;;;;;;;5073940;28;20047;-66
2022/05/15 11:26:48;;;;;;;65.72;62.33;;;;;;;;;;5065353;28;20036;-65
2022/05/15 11:29:18;;;;;;;66.90;63.60;;;;;;;;;;5065932;28;20020;-65
2022/05/15 11:31:50;;;;;;;65.22;61.97;;;;;;;;;;5066202;28;20036;-67
2022/05/15 11:34:15;;;;;;;71.50;67.97;;;;;;;;;;5065637;28;20443;-65
2022/05/15 11:36:45;;;;;;;72.78;69.10;;;;;;;;;;5065454;28;20078;-67
2022/05/15 11:39:14;;;;;;;101.53;96.53;;;;;;;;;;5068609;28;20024;-66
2022/05/15 11:41:42;;;;;;;159.20;151.38;;;;;;;;;;5070230;28;20040;-66
2022/05/15 11:44:13;;;;;;;113.03;107.43;;;;;;;;;;5069412;28;20695;-65
2022/05/15 11:46:44;;;;;;;128.40;121.93;;;;;;;;;;5070322;28;20040;-66
2022/05/15 11:49:36;;;;;;;94.93;90.20;;;;;;;;;;5069356;28;20130;-66
2022/05/15 11:52:05;;;;;;;103.38;98.28;;;;;;;;;;5069560;28;20029;-66
2022/05/15 11:54:35;;;;;;;75.50;71.75;;;;;;;;;;5068740;28;20307;-66
2022/05/15 11:57:01;;;;;;;117.43;111.60;;;;;;;;;;5069023;28;20042;-65
2022/05/15 11:59:30;;;;;;;125.53;119.35;;;;;;;;;;5068889;28;20385;-65
2022/05/15 12:02:00;;;;;;;165.35;157.15;;;;;;;;;;5070547;28;20024;-66
2022/05/15 12:04:35;;;;;;;176.68;168.02;;;;;;;;;;5068623;28;20729;-66
2022/05/15 12:07:00;;;;;;;175.70;167.10;;;;;;;;;;5069454;28;20599;-65
2022/05/15 12:09:41;;;;;;;89.38;84.93;;;;;;;;;;5069839;28;20079;-65
2022/05/15 12:12:24;;;;;;;190.88;181.48;;;;;;;;;;5068951;28;20520;-63
2022/05/15 12:15:23;;;;;;;189.50;180.35;;;;;;;;;;5069129;28;20028;-65
2022/05/15 12:17:59;;;;;;;172.15;163.75;;;;;;;;;;5068627;28;20024;-65
2022/05/15 12:20:28;;;;;;;135.68;128.95;;;;;;;;;;5068989;28;20032;-65
2022/05/15 12:23:03;;;;;;;170.27;161.90;;;;;;;;;;5069045;28;20028;-65
2022/05/15 12:25:36;;;;;;;167.52;159.32;;;;;;;;;;5069397;28;20114;-65
2022/05/15 12:31:04;;;;;;;126.97;120.70;;;;;;;;;;5069425;28;20055;-65
2022/05/15 12:33:30;;;;;;;97.53;92.70;;;;;;;;;;5068244;28;20036;-65
2022/05/15 12:35:57;;;;;;;113.78;108.18;;;;;;;;;;5069167;28;20028;-65
2022/05/15 12:38:25;;;;;;;156.73;148.98;;;;;;;;;;5069242;28;20166;-65
2022/05/15 12:41:07;;;;;;;108.20;102.80;;;;;;;;;;5068786;28;20034;-66
2022/05/15 12:43:40;;;;;;;116.28;110.53;;;;;;;;;;5068766;28;20381;-65
2022/05/15 12:46:07;;;;;;;172.65;164.20;;;;;;;;;;5069024;28;20248;-65
2022/05/15 12:48:38;;;;;;;113.55;107.93;;;;;;;;;;5068448;28;20039;-65
2022/05/15 12:51:07;;;;;;;158.32;150.48;;;;;;;;;;5068420;28;20039;-65
2022/05/15 12:53:44;;;;;;;114.65;109.00;;;;;;;;;;5068297;28;20025;-64
2022/05/15 12:56:22;;;;;;;54.58;51.83;;;;;;;;;;5068285;28;20024;-64
2022/05/15 12:58:50;;;;;;;58.08;55.17;;;;;;;;;;5069192;28;20025;-64
2022/05/15 13:01:16;;;;;;;64.63;61.35;;;;;;;;;;5069665;28;20024;-64
2022/05/15 13:03:44;;;;;;;72.43;68.80;;;;;;;;;;5068027;28;20036;-64
2022/05/15 13:06:09;;;;;;;78.53;74.63;;;;;;;;;;5068913;28;20029;-64
2022/05/15 13:08:48;;;;;;;124.93;118.70;;;;;;;;;;5067909;28;20446;-64
2022/05/15 13:11:20;;;;;;;77.75;73.85;;;;;;;;;;5067630;28;20032;-65
2022/05/15 13:13:46;;;;;;;77.80;73.90;;;;;;;;;;5068241;28;20081;-64
2022/05/15 13:16:19;;;;;;;65.25;61.97;;;;;;;;;;5068309;28;20113;-65
2022/05/15 13:18:47;;;;;;;59.78;56.78;;;;;;;;;;5067524;28;20116;-65
2022/05/15 13:21:13;;;;;;;106.05;100.80;;;;;;;;;;5059426;28;20449;-65
2022/05/15 13:23:44;;;;;;;72.22;68.35;;;;;;;;;;5068542;28;20104;-64
2022/05/15 13:26:25;;;;;;;110.70;105.20;;;;;;;;;;5066902;28;20056;-65
2022/05/15 13:28:51;;;;;;;98.30;93.43;;;;;;;;;;5067938;28;20120;-65
2022/05/15 13:31:16;;;;;;;55.42;52.63;;;;;;;;;;5068318;28;20127;-66
2022/05/15 13:33:44;;;;;;;63.35;60.17;;;;;;;;;;5067281;28;20048;-65
2022/05/15 13:36:14;;;;;;;49.40;46.90;;;;;;;;;;5067672;28;20032;-64
2022/05/15 13:44:13;;;;;;;44.63;42.35;;;;;;;;;;5066686;28;20094;-64
2022/05/15 13:47:06;;;;;;;43.40;41.17;;;;;;;;;;5067700;28;20162;-64
2022/05/15 13:49:42;;;;;;;56.20;53.38;;;;;;;;;;5067728;28;20059;-64
2022/05/15 13:52:40;;;;;;;55.17;52.42;;;;;;;;;;5068169;28;20039;-64
2022/05/15 13:55:11;;;;;;;42.83;40.63;;;;;;;;;;5065887;28;20038;-65
2022/05/15 13:57:57;;;;;;;46.83;44.42;;;;;;;;;;5067418;28;20033;-65
2022/05/15 14:00:31;;;;;;;43.85;41.63;;;;;;;;;;5064550;28;20052;-64
2022/05/15 14:03:03;;;;;;;44.28;42.05;;;;;;;;;;5067531;28;20488;-64
2022/05/15 14:05:32;;;;;;;43.13;40.92;;;;;;;;;;5066711;28;20059;-64
2022/05/15 14:08:10;;;;;;;41.13;39.03;;;;;;;;;;5067251;28;20378;-64
2022/05/15 14:10:37;;;;;;;48.15;45.70;;;;;;;;;;5067256;28;20024;-64
2022/05/15 14:13:04;;;;;;;54.05;51.30;;;;;;;;;;5066174;28;20047;-64
2022/05/15 14:15:32;;;;;;;49.58;47.10;;;;;;;;;;5067217;28;20366;-64
2022/05/15 14:18:00;;;;;;;46.47;44.08;;;;;;;;;;5066270;28;20036;-64
2022/05/15 14:20:30;;;;;;;42.80;40.63;;;;;;;;;;5066666;28;20032;-63
2022/05/15 14:22:55;;;;;;;43.85;41.65;;;;;;;;;;5067017;28;20028;-64
2022/05/15 14:25:21;;;;;;;47.78;45.28;;;;;;;;;;5067003;28;20627;-65
2022/05/15 14:27:47;;;;;;;48.50;46.03;;;;;;;;;;5066688;28;20290;-64
2022/05/15 14:30:12;;;;;;;46.67;44.20;;;;;;;;;;5066843;28;20021;-65
2022/05/15 14:32:37;;;;;;;41.72;39.63;;;;;;;;;;5065896;28;20762;-65
2022/05/15 14:35:13;;;;;;;46.70;44.30;;;;;;;;;;5066562;28;20039;-64
2022/05/15 14:37:38;;;;;;;42.55;40.38;;;;;;;;;;5057833;28;20064;-65
2022/05/15 14:40:04;;;;;;;41.28;39.17;;;;;;;;;;5066539;28;20048;-65
2022/05/15 14:42:30;;;;;;;44.58;42.30;;;;;;;;;;5066311;28;20028;-65
2022/05/15 14:44:58;;;;;;;43.00;40.83;;;;;;;;;;5065988;28;20031;-65
2022/05/15 14:47:28;;;;;;;42.90;40.70;;;;;;;;;;5066271;28;20067;-65
2022/05/15 14:49:54;;;;;;;;;;;;;;;;;;5066267;28;20032;-65
2022/05/15 14:52:28;;;;;;;42.33;40.17;;;;;;;;;;5065446;28;19924;-65
2022/05/15 14:54:53;;;;;;;51.15;48.55;;;;;;;;;;5065703;28;20032;-65
2022/05/15 14:57:23;;;;;;;45.70;43.40;;;;;;;;;;5066403;28;20032;-65
2022/05/15 14:59:52;;;;;;;45.63;43.33;;;;;;;;;;5065996;28;20020;-64
2022/05/15 15:02:18;;;;;;;46.72;44.35;;;;;;;;;;5065645;28;20059;-64
2022/05/15 15:04:43;;;;;;;46.53;44.13;;;;;;;;;;5065835;28;21012;-65
2022/05/15 15:07:09;;;;;;;42.75;40.55;;;;;;;;;;5066310;28;20055;-65
2022/05/15 15:09:34;;;;;;;46.65;44.22;;;;;;;;;;5065599;28;20036;-65